sensor_id;sensor_type;location;lat;lon;timestamp;pressure;altitude;pressure_sealevel;temperature;humidity
15050;BME280;7622;42.724;23.250;2023-05-19T00:00:01;94835.16;;;11.90;100.00
15050;BME280;7622;42.724;23.250;2023-05-19T00:02:30;94819.63;;;11.98;100.00
15050;BME280;7622;42.724;23.250;2023-05-19T00:04:58;94826.94;;;12.12;100.00
15050;BME280;7622;42.724;23.250;2023-05-19T00:07:29;94831.47;;;12.10;100.00
15050;BME280;7622;42.724;23.250;2023-05-19T00:09:57;94832.50;;;12.00;100.00
15050;BME280;7622;42.724;23.250;2023-05-19T00:12:24;94831.56;;;12.01;100.00
15050;BME280;7622;42.724;23.250;2023-05-19T00:14:51;94838.63;;;12.08;100.00
15050;BME280;7622;42.724;23.250;2023-05-19T00:17:18;94830.91;;;12.16;100.00
15050;BME280;7622;42.724;23.250;2023-05-19T00:19:45;94829.09;;;11.99;100.00
15050;BME280;7622;42.724;23.250;2023-05-19T00:22:13;94826.84;;;12.04;100.00
15050;BME280;7622;42.724;23.250;2023-05-19T00:24:42;94815.34;;;12.07;100.00
15050;BME280;7622;42.724;23.250;2023-05-19T00:27:08;94810.88;;;11.99;100.00
15050;BME280;7622;42.724;23.250;2023-05-19T00:29:35;94813.63;;;12.15;100.00
15050;BME280;7622;42.724;23.250;2023-05-19T00:32:02;94813.00;;;12.04;100.00
15050;BME280;7622;42.724;23.250;2023-05-19T00:34:29;94813.91;;;12.12;100.00
15050;BME280;7622;42.724;23.250;2023-05-19T00:36:55;94818.69;;;11.99;100.00
15050;BME280;7622;42.724;23.250;2023-05-19T00:39:22;94813.78;;;11.96;100.00
15050;BME280;7622;42.724;23.250;2023-05-19T00:41:50;94810.13;;;11.89;100.00
15050;BME280;7622;42.724;23.250;2023-05-19T00:44:17;94819.31;;;11.83;100.00
15050;BME280;7622;42.724;23.250;2023-05-19T00:46:44;94813.00;;;11.86;100.00
15050;BME280;7622;42.724;23.250;2023-05-19T00:49:10;94817.69;;;11.82;100.00
15050;BME280;7622;42.724;23.250;2023-05-19T00:51:37;94810.03;;;11.81;100.00
15050;BME280;7622;42.724;23.250;2023-05-19T00:54:04;94810.88;;;11.72;100.00
15050;BME280;7622;42.724;23.250;2023-05-19T00:56:31;94797.56;;;11.57;100.00
15050;BME280;7622;42.724;23.250;2023-05-19T00:59:00;94804.91;;;11.62;100.00
15050;BME280;7622;42.724;23.250;2023-05-19T01:01:27;94811.25;;;11.59;100.00
15050;BME280;7622;42.724;23.250;2023-05-19T01:03:54;94815.06;;;11.55;100.00
15050;BME280;7622;42.724;23.250;2023-05-19T01:06:23;94809.34;;;11.34;100.00
15050;BME280;7622;42.724;23.250;2023-05-19T01:08:53;94814.78;;;11.40;100.00
15050;BME280;7622;42.724;23.250;2023-05-19T01:11:20;94802.72;;;11.12;100.00
15050;BME280;7622;42.724;23.250;2023-05-19T01:13:47;94804.84;;;11.26;100.00
15050;BME280;7622;42.724;23.250;2023-05-19T01:16:20;94809.56;;;11.13;100.00
15050;BME280;7622;42.724;23.250;2023-05-19T01:18:53;94814.31;;;11.18;100.00
15050;BME280;7622;42.724;23.250;2023-05-19T01:21:47;94807.38;;;11.09;100.00
15050;BME280;7622;42.724;23.250;2023-05-19T01:27:25;94806.34;;;10.92;100.00
15050;BME280;7622;42.724;23.250;2023-05-19T01:30:20;94808.50;;;10.96;100.00
15050;BME280;7622;42.724;23.250;2023-05-19T01:32:52;94810.81;;;10.99;100.00
15050;BME280;7622;42.724;23.250;2023-05-19T01:35:21;94809.91;;;10.91;100.00
15050;BME280;7622;42.724;23.250;2023-05-19T01:37:49;94812.38;;;10.92;100.00
15050;BME280;7622;42.724;23.250;2023-05-19T01:40:17;94809.28;;;11.06;100.00
15050;BME280;7622;42.724;23.250;2023-05-19T01:42:45;94819.72;;;10.97;100.00
15050;BME280;7622;42.724;23.250;2023-05-19T01:45:12;94819.03;;;10.95;100.00
15050;BME280;7622;42.724;23.250;2023-05-19T01:47:42;94810.97;;;10.98;100.00
15050;BME280;7622;42.724;23.250;2023-05-19T01:50:09;94801.50;;;10.60;100.00
15050;BME280;7622;42.724;23.250;2023-05-19T01:52:36;94815.38;;;10.88;100.00
15050;BME280;7622;42.724;23.250;2023-05-19T01:55:04;94816.19;;;10.98;100.00
15050;BME280;7622;42.724;23.250;2023-05-19T01:57:39;94818.22;;;10.94;100.00
15050;BME280;7622;42.724;23.250;2023-05-19T02:00:11;94819.47;;;10.90;100.00
15050;BME280;7622;42.724;23.250;2023-05-19T02:02:51;94817.00;;;10.89;100.00
15050;BME280;7622;42.724;23.250;2023-05-19T02:05:25;94817.00;;;10.89;100.00
15050;BME280;7622;42.724;23.250;2023-05-19T02:08:05;94815.66;;;10.85;100.00
15050;BME280;7622;42.724;23.250;2023-05-19T02:10:39;94816.06;;;10.80;100.00
15050;BME280;7622;42.724;23.250;2023-05-19T02:13:10;94809.91;;;10.91;100.00
15050;BME280;7622;42.724;23.250;2023-05-19T02:15:40;94823.72;;;10.82;100.00
15050;BME280;7622;42.724;23.250;2023-05-19T02:18:10;94810.34;;;10.77;100.00
15050;BME280;7622;42.724;23.250;2023-05-19T02:20:37;94822.78;;;10.83;100.00
15050;BME280;7622;42.724;23.250;2023-05-19T02:23:03;94824.81;;;10.79;100.00
15050;BME280;7622;42.724;23.250;2023-05-19T02:25:30;94815.81;;;10.83;100.00
15050;BME280;7622;42.724;23.250;2023-05-19T02:27:57;94820.88;;;10.85;100.00
15050;BME280;7622;42.724;23.250;2023-05-19T02:30:24;94831.34;;;10.93;100.00
15050;BME280;7622;42.724;23.250;2023-05-19T02:32:51;94823.03;;;10.89;100.00
15050;BME280;7622;42.724;23.250;2023-05-19T02:35:20;94818.66;;;10.90;100.00
15050;BME280;7622;42.724;23.250;2023-05-19T02:37:47;94825.88;;;10.96;100.00
15050;BME280;7622;42.724;23.250;2023-05-19T02:40:13;94826.84;;;10.95;100.00
15050;BME280;7622;42.724;23.250;2023-05-19T02:42:40;94823.66;;;11.11;100.00
15050;BME280;7622;42.724;23.250;2023-05-19T02:45:07;94824.75;;;11.08;100.00
15050;BME280;7622;42.724;23.250;2023-05-19T02:47:34;94824.09;;;10.96;100.00
15050;BME280;7622;42.724;23.250;2023-05-19T02:50:03;94823.28;;;10.96;100.00
15050;BME280;7622;42.724;23.250;2023-05-19T02:52:31;94835.91;;;10.91;100.00
15050;BME280;7622;42.724;23.250;2023-05-19T02:54:57;94830.56;;;10.83;100.00
15050;BME280;7622;42.724;23.250;2023-05-19T02:57:24;94829.16;;;10.98;100.00
15050;BME280;7622;42.724;23.250;2023-05-19T02:59:52;94835.59;;;10.94;100.00
15050;BME280;7622;42.724;23.250;2023-05-19T03:02:18;94833.16;;;10.92;100.00
15050;BME280;7622;42.724;23.250;2023-05-19T03:04:45;94837.38;;;10.93;100.00
15050;BME280;7622;42.724;23.250;2023-05-19T03:07:12;94836.16;;;10.88;100.00
15050;BME280;7622;42.724;23.250;2023-05-19T03:09:41;94841.78;;;10.83;100.00
15050;BME280;7622;42.724;23.250;2023-05-19T03:12:08;94847.94;;;10.73;100.00
15050;BME280;7622;42.724;23.250;2023-05-19T03:14:35;94849.16;;;10.88;100.00
15050;BME280;7622;42.724;23.250;2023-05-19T03:17:03;94847.03;;;11.11;100.00
15050;BME280;7622;42.724;23.250;2023-05-19T03:19:31;94841.63;;;10.94;100.00
15050;BME280;7622;42.724;23.250;2023-05-19T03:21:58;94840.78;;;10.94;100.00
15050;BME280;7622;42.724;23.250;2023-05-19T03:24:25;94842.56;;;10.93;100.00
15050;BME280;7622;42.724;23.250;2023-05-19T03:26:53;94838.31;;;11.02;100.00
15050;BME280;7622;42.724;23.250;2023-05-19T03:29:20;94847.88;;;11.01;100.00
15050;BME280;7622;42.724;23.250;2023-05-19T03:31:47;94841.78;;;11.20;100.00
15050;BME280;7622;42.724;23.250;2023-05-19T03:34:13;94841.56;;;11.41;100.00
15050;BME280;7622;42.724;23.250;2023-05-19T03:36:40;94849.91;;;11.44;100.00
15050;BME280;7622;42.724;23.250;2023-05-19T03:39:07;94849.06;;;11.54;100.00
15050;BME280;7622;42.724;23.250;2023-05-19T03:41:35;94838.06;;;11.60;100.00
15050;BME280;7622;42.724;23.250;2023-05-19T03:44:03;94838.81;;;11.70;100.00
15050;BME280;7622;42.724;23.250;2023-05-19T03:46:30;94843.19;;;11.79;100.00
15050;BME280;7622;42.724;23.250;2023-05-19T03:48:57;94844.53;;;11.83;100.00
15050;BME280;7622;42.724;23.250;2023-05-19T03:51:24;94847.06;;;11.75;100.00
15050;BME280;7622;42.724;23.250;2023-05-19T03:53:53;94850.06;;;11.70;100.00
15050;BME280;7622;42.724;23.250;2023-05-19T03:56:20;94860.91;;;11.75;100.00
15050;BME280;7622;42.724;23.250;2023-05-19T03:58:48;94854.66;;;11.86;100.00
15050;BME280;7622;42.724;23.250;2023-05-19T04:01:16;94857.72;;;11.99;100.00
15050;BME280;7622;42.724;23.250;2023-05-19T04:03:43;94860.09;;;12.10;100.00
15050;BME280;7622;42.724;23.250;2023-05-19T04:06:10;94851.34;;;12.11;100.00
15050;BME280;7622;42.724;23.250;2023-05-19T04:08:37;94858.88;;;12.50;100.00
15050;BME280;7622;42.724;23.250;2023-05-19T04:11:04;94857.81;;;12.86;100.00
15050;BME280;7622;42.724;23.250;2023-05-19T04:13:31;94870.78;;;13.22;100.00
15050;BME280;7622;42.724;23.250;2023-05-19T04:15:58;94872.16;;;13.26;100.00
15050;BME280;7622;42.724;23.250;2023-05-19T04:18:26;94874.13;;;13.66;100.00
15050;BME280;7622;42.724;23.250;2023-05-19T04:20:53;94870.66;;;13.57;100.00
15050;BME280;7622;42.724;23.250;2023-05-19T04:23:20;94868.38;;;14.04;100.00
15050;BME280;7622;42.724;23.250;2023-05-19T04:25:47;94864.38;;;14.34;100.00
15050;BME280;7622;42.724;23.250;2023-05-19T04:28:14;94869.47;;;14.60;100.00
15050;BME280;7622;42.724;23.250;2023-05-19T04:30:42;94869.16;;;14.95;100.00
15050;BME280;7622;42.724;23.250;2023-05-19T04:33:11;94884.38;;;15.00;100.00
15050;BME280;7622;42.724;23.250;2023-05-19T04:35:39;94875.84;;;15.06;100.00
15050;BME280;7622;42.724;23.250;2023-05-19T04:38:06;94884.00;;;15.19;100.00
15050;BME280;7622;42.724;23.250;2023-05-19T04:40:34;94883.34;;;15.25;100.00
15050;BME280;7622;42.724;23.250;2023-05-19T04:43:01;94882.53;;;15.33;100.00
15050;BME280;7622;42.724;23.250;2023-05-19T04:45:28;94881.03;;;15.38;100.00
15050;BME280;7622;42.724;23.250;2023-05-19T04:47:57;94889.19;;;15.44;100.00
15050;BME280;7622;42.724;23.250;2023-05-19T04:50:24;94886.56;;;15.68;100.00
15050;BME280;7622;42.724;23.250;2023-05-19T04:52:54;94889.47;;;15.73;100.00
15050;BME280;7622;42.724;23.250;2023-05-19T04:55:23;94893.16;;;15.95;100.00
15050;BME280;7622;42.724;23.250;2023-05-19T04:57:50;94891.66;;;16.00;100.00
15050;BME280;7622;42.724;23.250;2023-05-19T05:00:17;94893.88;;;16.11;100.00
15050;BME280;7622;42.724;23.250;2023-05-19T05:02:44;94893.25;;;16.40;100.00
15050;BME280;7622;42.724;23.250;2023-05-19T05:05:13;94888.38;;;16.60;100.00
15050;BME280;7622;42.724;23.250;2023-05-19T05:07:42;94887.97;;;17.31;100.00
15050;BME280;7622;42.724;23.250;2023-05-19T05:10:10;94903.19;;;16.76;100.00
15050;BME280;7622;42.724;23.250;2023-05-19T05:12:38;94895.22;;;16.69;100.00
15050;BME280;7622;42.724;23.250;2023-05-19T05:15:06;94887.72;;;16.66;100.00
15050;BME280;7622;42.724;23.250;2023-05-19T05:17:33;94893.75;;;16.89;100.00
15050;BME280;7622;42.724;23.250;2023-05-19T05:20:02;94899.28;;;16.94;100.00
15050;BME280;7622;42.724;23.250;2023-05-19T05:22:31;94892.56;;;17.15;100.00
15050;BME280;7622;42.724;23.250;2023-05-19T05:24:58;94893.66;;;17.20;100.00
15050;BME280;7622;42.724;23.250;2023-05-19T05:27:26;94891.44;;;17.09;100.00
15050;BME280;7622;42.724;23.250;2023-05-19T05:29:53;94897.94;;;17.21;100.00
15050;BME280;7622;42.724;23.250;2023-05-19T05:32:21;94889.91;;;17.52;100.00
15050;BME280;7622;42.724;23.250;2023-05-19T05:34:47;94885.75;;;17.06;100.00
15050;BME280;7622;42.724;23.250;2023-05-19T05:37:15;94896.03;;;17.30;100.00
15050;BME280;7622;42.724;23.250;2023-05-19T05:39:41;94894.81;;;17.55;100.00
15050;BME280;7622;42.724;23.250;2023-05-19T05:42:09;94902.59;;;17.11;100.00
15050;BME280;7622;42.724;23.250;2023-05-19T05:44:38;94901.28;;;17.45;100.00
15050;BME280;7622;42.724;23.250;2023-05-19T05:47:05;94892.44;;;17.60;100.00
15050;BME280;7622;42.724;23.250;2023-05-19T05:49:33;94900.53;;;17.88;100.00
15050;BME280;7622;42.724;23.250;2023-05-19T05:52:03;94904.88;;;17.96;100.00
15050;BME280;7622;42.724;23.250;2023-05-19T05:54:30;94905.50;;;18.13;100.00
15050;BME280;7622;42.724;23.250;2023-05-19T05:56:58;94905.25;;;17.93;100.00
15050;BME280;7622;42.724;23.250;2023-05-19T05:59:24;94913.22;;;17.99;100.00
15050;BME280;7622;42.724;23.250;2023-05-19T06:01:53;94916.56;;;18.08;100.00
15050;BME280;7622;42.724;23.250;2023-05-19T06:04:20;94915.88;;;18.35;100.00
15050;BME280;7622;42.724;23.250;2023-05-19T06:06:46;94929.13;;;18.42;100.00
15050;BME280;7622;42.724;23.250;2023-05-19T06:09:13;94919.94;;;18.53;100.00
15050;BME280;7622;42.724;23.250;2023-05-19T06:11:40;94920.38;;;18.92;100.00
15050;BME280;7622;42.724;23.250;2023-05-19T06:14:07;94929.50;;;18.96;100.00
15050;BME280;7622;42.724;23.250;2023-05-19T06:16:34;94922.84;;;19.43;100.00
15050;BME280;7622;42.724;23.250;2023-05-19T06:19:02;94924.31;;;19.24;100.00
15050;BME280;7622;42.724;23.250;2023-05-19T06:21:28;94931.19;;;19.74;100.00
15050;BME280;7622;42.724;23.250;2023-05-19T06:23:55;94929.19;;;19.76;100.00
15050;BME280;7622;42.724;23.250;2023-05-19T06:26:22;94925.03;;;19.60;100.00
15050;BME280;7622;42.724;23.250;2023-05-19T06:28:49;94916.94;;;19.41;100.00
15050;BME280;7622;42.724;23.250;2023-05-19T06:31:15;94924.59;;;19.57;100.00
15050;BME280;7622;42.724;23.250;2023-05-19T06:33:42;94930.13;;;19.96;100.00
15050;BME280;7622;42.724;23.250;2023-05-19T06:36:10;94928.88;;;19.92;100.00
15050;BME280;7622;42.724;23.250;2023-05-19T06:38:38;94929.47;;;20.29;99.37
15050;BME280;7622;42.724;23.250;2023-05-19T06:41:05;94929.41;;;20.16;95.81
15050;BME280;7622;42.724;23.250;2023-05-19T06:43:31;94928.38;;;20.51;90.39
15050;BME280;7622;42.724;23.250;2023-05-19T06:45:58;94931.97;;;20.37;94.06
15050;BME280;7622;42.724;23.250;2023-05-19T06:48:25;94935.84;;;21.02;85.60
15050;BME280;7622;42.724;23.250;2023-05-19T06:50:52;94929.75;;;21.14;85.10
15050;BME280;7622;42.724;23.250;2023-05-19T06:53:20;94933.03;;;21.16;81.98
15050;BME280;7622;42.724;23.250;2023-05-19T06:55:47;94943.47;;;20.70;83.12
15050;BME280;7622;42.724;23.250;2023-05-19T06:58:15;94943.41;;;21.31;79.75
15050;BME280;7622;42.724;23.250;2023-05-19T07:00:42;94939.50;;;21.14;79.73
15050;BME280;7622;42.724;23.250;2023-05-19T07:03:09;94945.66;;;21.21;76.51
15050;BME280;7622;42.724;23.250;2023-05-19T07:05:36;94943.03;;;21.54;73.64
15050;BME280;7622;42.724;23.250;2023-05-19T07:08:03;94943.63;;;21.43;76.28
15050;BME280;7622;42.724;23.250;2023-05-19T07:10:31;94940.19;;;21.29;76.07
15050;BME280;7622;42.724;23.250;2023-05-19T07:12:58;94950.47;;;21.04;81.47
15050;BME280;7622;42.724;23.250;2023-05-19T07:15:24;94952.34;;;21.83;76.53
15050;BME280;7622;42.724;23.250;2023-05-19T07:17:51;94950.06;;;22.32;71.44
15050;BME280;7622;42.724;23.250;2023-05-19T07:20:18;94941.53;;;22.24;73.50
15050;BME280;7622;42.724;23.250;2023-05-19T07:22:45;94940.34;;;21.87;73.66
15050;BME280;7622;42.724;23.250;2023-05-19T07:25:11;94946.88;;;21.91;71.16
15050;BME280;7622;42.724;23.250;2023-05-19T07:27:39;94944.63;;;21.88;78.22
15050;BME280;7622;42.724;23.250;2023-05-19T07:30:07;94951.34;;;21.84;72.94
15050;BME280;7622;42.724;23.250;2023-05-19T07:32:34;94947.06;;;21.83;72.44
15050;BME280;7622;42.724;23.250;2023-05-19T07:35:01;94946.88;;;21.65;71.40
15050;BME280;7622;42.724;23.250;2023-05-19T07:37:27;94947.69;;;21.58;72.22
15050;BME280;7622;42.724;23.250;2023-05-19T07:39:54;94950.31;;;21.58;69.47
15050;BME280;7622;42.724;23.250;2023-05-19T07:42:21;94949.03;;;22.33;68.53
15050;BME280;7622;42.724;23.250;2023-05-19T07:44:49;94943.22;;;23.07;65.31
15050;BME280;7622;42.724;23.250;2023-05-19T07:47:16;94946.59;;;23.46;62.34
15050;BME280;7622;42.724;23.250;2023-05-19T07:49:43;94947.75;;;23.63;60.53
15050;BME280;7622;42.724;23.250;2023-05-19T07:52:09;94947.66;;;23.13;61.31
15050;BME280;7622;42.724;23.250;2023-05-19T07:54:36;94946.84;;;22.75;62.20
15050;BME280;7622;42.724;23.250;2023-05-19T07:57:03;94934.00;;;22.14;64.66
15050;BME280;7622;42.724;23.250;2023-05-19T07:59:30;94947.50;;;21.53;70.14
15050;BME280;7622;42.724;23.250;2023-05-19T08:01:59;94933.25;;;21.68;70.39
15050;BME280;7622;42.724;23.250;2023-05-19T08:04:26;94947.66;;;22.69;65.42
15050;BME280;7622;42.724;23.250;2023-05-19T08:06:53;94938.69;;;23.14;61.04
15050;BME280;7622;42.724;23.250;2023-05-19T08:09:20;94942.47;;;23.25;62.87
15050;BME280;7622;42.724;23.250;2023-05-19T08:11:47;94944.06;;;23.01;61.10
15050;BME280;7622;42.724;23.250;2023-05-19T08:14:14;94941.34;;;22.76;60.94
15050;BME280;7622;42.724;23.250;2023-05-19T08:16:41;94947.97;;;22.92;61.69
15050;BME280;7622;42.724;23.250;2023-05-19T08:19:10;94940.72;;;23.12;61.90
15050;BME280;7622;42.724;23.250;2023-05-19T08:21:37;94941.78;;;23.36;65.01
15050;BME280;7622;42.724;23.250;2023-05-19T08:24:04;94948.44;;;23.77;58.87
15050;BME280;7622;42.724;23.250;2023-05-19T08:26:31;94944.41;;;23.92;59.75
15050;BME280;7622;42.724;23.250;2023-05-19T08:28:58;94943.22;;;24.07;61.58
15050;BME280;7622;42.724;23.250;2023-05-19T08:31:24;94932.50;;;23.52;61.66
15050;BME280;7622;42.724;23.250;2023-05-19T08:33:51;94935.44;;;23.37;62.00
15050;BME280;7622;42.724;23.250;2023-05-19T08:36:19;94925.84;;;23.11;63.32
15050;BME280;7622;42.724;23.250;2023-05-19T08:38:47;94932.31;;;23.22;60.63
15050;BME280;7622;42.724;23.250;2023-05-19T08:41:14;94935.75;;;23.54;60.50
15050;BME280;7622;42.724;23.250;2023-05-19T08:43:41;94930.69;;;23.95;58.35
15050;BME280;7622;42.724;23.250;2023-05-19T08:46:11;94900.28;;;23.73;58.50
15050;BME280;7622;42.724;23.250;2023-05-19T08:48:41;94931.19;;;24.65;59.37
15050;BME280;7622;42.724;23.250;2023-05-19T08:51:15;94927.81;;;24.40;59.85
15050;BME280;7622;42.724;23.250;2023-05-19T08:53:47;94931.50;;;24.39;56.00
15050;BME280;7622;42.724;23.250;2023-05-19T08:56:19;94928.19;;;23.58;63.38
15050;BME280;7622;42.724;23.250;2023-05-19T08:58:48;94926.34;;;23.83;59.80
15050;BME280;7622;42.724;23.250;2023-05-19T09:01:16;94931.63;;;24.44;59.22
15050;BME280;7622;42.724;23.250;2023-05-19T09:03:43;94928.25;;;24.37;56.14
15050;BME280;7622;42.724;23.250;2023-05-19T09:06:10;94927.19;;;24.56;56.56
15050;BME280;7622;42.724;23.250;2023-05-19T09:08:38;94934.88;;;24.64;56.88
15050;BME280;7622;42.724;23.250;2023-05-19T09:11:06;94919.22;;;24.56;55.85
15050;BME280;7622;42.724;23.250;2023-05-19T09:13:33;94918.91;;;24.64;54.97
15050;BME280;7622;42.724;23.250;2023-05-19T09:16:00;94916.56;;;24.75;55.86
15050;BME280;7622;42.724;23.250;2023-05-19T09:18:28;94919.69;;;24.53;54.92
15050;BME280;7622;42.724;23.250;2023-05-19T09:20:56;94922.72;;;24.87;54.50
15050;BME280;7622;42.724;23.250;2023-05-19T09:23:26;94914.72;;;24.75;54.65
15050;BME280;7622;42.724;23.250;2023-05-19T09:25:54;94907.09;;;23.87;56.57
15050;BME280;7622;42.724;23.250;2023-05-19T09:28:28;94911.50;;;23.75;58.96
15050;BME280;7622;42.724;23.250;2023-05-19T09:31:00;94907.47;;;23.91;55.97
15050;BME280;7622;42.724;23.250;2023-05-19T09:33:27;94893.03;;;24.05;56.53
15050;BME280;7622;42.724;23.250;2023-05-19T09:35:54;94911.41;;;24.61;55.47
15050;BME280;7622;42.724;23.250;2023-05-19T09:38:23;94909.66;;;24.37;56.03
15050;BME280;7622;42.724;23.250;2023-05-19T09:40:50;94902.06;;;24.70;56.93
15050;BME280;7622;42.724;23.250;2023-05-19T09:43:17;94905.34;;;24.72;56.35
15050;BME280;7622;42.724;23.250;2023-05-19T09:45:46;94904.84;;;24.46;57.50
15050;BME280;7622;42.724;23.250;2023-05-19T09:48:13;94903.84;;;24.95;56.86
15050;BME280;7622;42.724;23.250;2023-05-19T09:50:41;94893.78;;;25.50;54.75
15050;BME280;7622;42.724;23.250;2023-05-19T09:53:11;94902.16;;;24.82;54.13
15050;BME280;7622;42.724;23.250;2023-05-19T09:55:39;94888.84;;;23.98;57.69
15050;BME280;7622;42.724;23.250;2023-05-19T09:58:07;94900.19;;;24.41;54.44
15050;BME280;7622;42.724;23.250;2023-05-19T10:00:34;94897.47;;;24.48;54.33
15050;BME280;7622;42.724;23.250;2023-05-19T10:03:03;94884.56;;;23.97;56.01
15050;BME280;7622;42.724;23.250;2023-05-19T10:05:31;94885.84;;;23.69;55.35
15050;BME280;7622;42.724;23.250;2023-05-19T10:07:58;94879.84;;;23.55;56.58
15050;BME280;7622;42.724;23.250;2023-05-19T10:10:26;94877.94;;;23.13;57.22
15050;BME280;7622;42.724;23.250;2023-05-19T10:12:54;94883.34;;;23.25;57.13
15050;BME280;7622;42.724;23.250;2023-05-19T10:15:21;94872.97;;;23.23;56.37
15050;BME280;7622;42.724;23.250;2023-05-19T10:17:49;94870.13;;;23.18;56.52
15050;BME280;7622;42.724;23.250;2023-05-19T10:20:17;94865.22;;;22.59;55.12
15050;BME280;7622;42.724;23.250;2023-05-19T10:22:45;94880.16;;;21.76;56.14
15050;BME280;7622;42.724;23.250;2023-05-19T10:25:13;94876.50;;;21.44;57.23
15050;BME280;7622;42.724;23.250;2023-05-19T10:27:46;94870.41;;;21.63;56.71
15050;BME280;7622;42.724;23.250;2023-05-19T10:30:19;94872.03;;;21.71;57.52
15050;BME280;7622;42.724;23.250;2023-05-19T10:32:47;94873.19;;;21.88;56.41
15050;BME280;7622;42.724;23.250;2023-05-19T10:35:37;94872.56;;;21.92;56.32
15050;BME280;7622;42.724;23.250;2023-05-19T10:38:15;94868.63;;;22.21;56.40
15050;BME280;7622;42.724;23.250;2023-05-19T10:40:52;94868.03;;;23.27;54.38
15050;BME280;7622;42.724;23.250;2023-05-19T10:43:28;94870.41;;;22.78;55.07
15050;BME280;7622;42.724;23.250;2023-05-19T10:45:59;94882.44;;;22.30;56.42
15050;BME280;7622;42.724;23.250;2023-05-19T10:48:32;94885.41;;;22.02;57.26
15050;BME280;7622;42.724;23.250;2023-05-19T10:51:00;94872.28;;;22.20;56.08
15050;BME280;7622;42.724;23.250;2023-05-19T10:53:30;94858.03;;;22.21;57.62
15050;BME280;7622;42.724;23.250;2023-05-19T10:55:58;94875.38;;;22.17;58.23
15050;BME280;7622;42.724;23.250;2023-05-19T10:58:38;94866.16;;;22.71;55.83
15050;BME280;7622;42.724;23.250;2023-05-19T11:01:12;94871.38;;;23.65;54.46
15050;BME280;7622;42.724;23.250;2023-05-19T11:03:46;94857.25;;;24.08;51.78
15050;BME280;7622;42.724;23.250;2023-05-19T11:06:24;94860.28;;;23.75;52.41
15050;BME280;7622;42.724;23.250;2023-05-19T11:08:53;94858.44;;;23.93;52.10
15050;BME280;7622;42.724;23.250;2023-05-19T11:11:20;94863.16;;;24.10;50.95
15050;BME280;7622;42.724;23.250;2023-05-19T11:13:49;94863.00;;;24.59;51.62
15050;BME280;7622;42.724;23.250;2023-05-19T11:16:18;94856.69;;;25.02;50.08
15050;BME280;7622;42.724;23.250;2023-05-19T11:18:49;94852.56;;;24.10;52.63
15050;BME280;7622;42.724;23.250;2023-05-19T11:21:18;94860.53;;;23.48;53.00
15050;BME280;7622;42.724;23.250;2023-05-19T11:23:47;94854.28;;;22.87;52.46
15050;BME280;7622;42.724;23.250;2023-05-19T11:26:14;94852.84;;;22.84;52.49
15050;BME280;7622;42.724;23.250;2023-05-19T11:28:41;94844.03;;;23.22;51.49
15050;BME280;7622;42.724;23.250;2023-05-19T11:31:09;94865.38;;;23.76;50.54
15050;BME280;7622;42.724;23.250;2023-05-19T11:33:36;94857.78;;;23.98;49.67
15050;BME280;7622;42.724;23.250;2023-05-19T11:36:05;94845.31;;;23.80;50.41
15050;BME280;7622;42.724;23.250;2023-05-19T11:38:33;94856.41;;;23.52;51.10
15050;BME280;7622;42.724;23.250;2023-05-19T11:41:02;94844.09;;;23.58;51.49
15050;BME280;7622;42.724;23.250;2023-05-19T11:43:29;94851.16;;;23.71;48.91
15050;BME280;7622;42.724;23.250;2023-05-19T11:45:56;94862.72;;;23.27;50.17
15050;BME280;7622;42.724;23.250;2023-05-19T11:48:23;94851.25;;;22.38;51.21
15050;BME280;7622;42.724;23.250;2023-05-19T11:50:51;94851.78;;;22.09;52.12
15050;BME280;7622;42.724;23.250;2023-05-19T11:53:18;94845.91;;;21.94;53.46
15050;BME280;7622;42.724;23.250;2023-05-19T11:55:45;94851.31;;;21.54;53.20
15050;BME280;7622;42.724;23.250;2023-05-19T11:58:14;94848.81;;;21.66;52.22
15050;BME280;7622;42.724;23.250;2023-05-19T12:00:43;94846.78;;;21.68;53.61
15050;BME280;7622;42.724;23.250;2023-05-19T12:03:10;94852.47;;;21.65;53.37
15050;BME280;7622;42.724;23.250;2023-05-19T12:05:41;94854.56;;;21.30;55.32
15050;BME280;7622;42.724;23.250;2023-05-19T12:08:08;94855.81;;;21.21;58.67
15050;BME280;7622;42.724;23.250;2023-05-19T12:10:35;94857.00;;;20.99;59.47
15050;BME280;7622;42.724;23.250;2023-05-19T12:13:02;94797.78;;;20.34;59.39
15050;BME280;7622;42.724;23.250;2023-05-19T12:15:33;94869.06;;;20.47;64.06
15050;BME280;7622;42.724;23.250;2023-05-19T12:18:01;94875.75;;;19.95;70.79
15050;BME280;7622;42.724;23.250;2023-05-19T12:20:28;94900.75;;;19.44;77.09
15050;BME280;7622;42.724;23.250;2023-05-19T12:22:57;94871.66;;;18.60;91.42
15050;BME280;7622;42.724;23.250;2023-05-19T12:25:24;94919.63;;;18.26;100.00
15050;BME280;7622;42.724;23.250;2023-05-19T12:27:55;94891.16;;;17.27;100.00
15050;BME280;7622;42.724;23.250;2023-05-19T12:30:25;94852.34;;;16.31;100.00
15050;BME280;7622;42.724;23.250;2023-05-19T12:32:55;94896.84;;;16.39;100.00
15050;BME280;7622;42.724;23.250;2023-05-19T12:35:25;94908.94;;;16.18;100.00
15050;BME280;7622;42.724;23.250;2023-05-19T12:37:52;94899.81;;;16.05;100.00
15050;BME280;7622;42.724;23.250;2023-05-19T12:40:19;94887.28;;;15.85;100.00
15050;BME280;7622;42.724;23.250;2023-05-19T12:42:46;94911.06;;;15.83;100.00
15050;BME280;7622;42.724;23.250;2023-05-19T12:45:19;94896.00;;;15.77;100.00
15050;BME280;7622;42.724;23.250;2023-05-19T12:47:47;94891.09;;;15.82;100.00
15050;BME280;7622;42.724;23.250;2023-05-19T12:50:16;94879.22;;;16.02;100.00
15050;BME280;7622;42.724;23.250;2023-05-19T12:52:45;94869.66;;;16.09;100.00
15050;BME280;7622;42.724;23.250;2023-05-19T12:55:13;94856.47;;;16.26;100.00
15050;BME280;7622;42.724;23.250;2023-05-19T12:57:42;94853.53;;;16.51;100.00
15050;BME280;7622;42.724;23.250;2023-05-19T13:00:13;94853.69;;;16.96;100.00
15050;BME280;7622;42.724;23.250;2023-05-19T13:02:55;94851.84;;;17.19;100.00